| time (UTC) | temp F | wind direction | speed MPH | gust MPH | rain 1hr in | rain 24hr in | rain mn in | humidity % | barometer mb |
| 20260508054020 | 59 | 115 | 4.0 | 6.0 | 0.00 | 0.00 | 0.00 | 21 | 1016.8 |
| 20260508053041 | 58 | 120 | 2.0 | 6.0 | 0.00 | 0.00 | 0.00 | 22 | 1016.8 |
| 20260508052018 | 59 | 117 | 3.0 | 6.0 | 0.00 | 0.00 | 0.00 | 23 | 1016.8 |
| 20260508051018 | 59 | 108 | 4.0 | 5.0 | 0.00 | 0.00 | 0.00 | 22 | 1016.8 |
| 20260508050021 | 60 | 120 | 2.0 | 5.0 | 0.00 | 0.00 | 0.00 | 22 | 1016.8 |
| 20260508045021 | 61 | 104 | 3.0 | 6.0 | 0.00 | 0.00 | 0.00 | 21 | 1016.8 |
| 20260508044018 | 61 | 108 | 4.0 | 6.0 | 0.00 | 0.00 | 0.00 | 21 | 1016.8 |
| 20260508043018 | 61 | 101 | 2.0 | 5.0 | 0.00 | 0.00 | 0.00 | 23 | 1016.8 |
| 20260508042039 | 61 | 106 | 3.0 | 4.0 | 0.00 | 0.00 | 0.00 | 23 | 1016.8 |
| 20260508041018 | 62 | 106 | 3.0 | 5.0 | 0.00 | 0.00 | 0.00 | 23 | 1016.8 |
| 20260508040019 | 62 | 111 | 2.0 | 4.0 | 0.00 | 0.00 | 0.00 | 22 | 1016.7 |
| 20260508035039 | 63 | 116 | 0.0 | 2.0 | 0.00 | 0.00 | 0.00 | 20 | 1016.6 |
| 20260508034019 | 64 | 55 | 0.0 | 2.0 | 0.00 | 0.00 | 0.00 | 19 | 1016.4 |
| 20260508033019 | 65 | 78 | 2.0 | 5.0 | 0.00 | 0.00 | 0.00 | 19 | 1016.2 |
| 20260508032021 | 65 | 56 | 2.0 | 5.0 | 0.00 | 0.00 | 0.00 | 17 | 1016.0 |
| 20260508031041 | 66 | 63 | 0.0 | 1.0 | 0.00 | 0.00 | 0.00 | 17 | 1015.8 |
| 20260508030020 | 66 | 44 | 0.0 | 2.0 | 0.00 | 0.00 | 0.00 | 16 | 1015.7 |
| 20260508025021 | 67 | 96 | 0.0 | 2.0 | 0.00 | 0.00 | 0.00 | 17 | 1015.7 |
| 20260508024021 | 67 | 331 | 0.0 | 2.0 | 0.00 | 0.00 | 0.00 | 17 | 1015.6 |
| 20260508023017 | 68 | 332 | 1.0 | 3.0 | 0.00 | 0.00 | 0.00 | 18 | 1015.5 |
| 20260508022018 | 69 | 215 | 0.0 | 2.0 | 0.00 | 0.00 | 0.00 | 17 | 1015.4 |
| 20260508021017 | 70 | 210 | 1.0 | 3.0 | 0.00 | 0.00 | 0.00 | 16 | 1015.2 |
| 20260508020021 | 71 | 236 | 1.0 | 4.0 | 0.00 | 0.00 | 0.00 | 16 | 1015.1 |
| 20260508015018 | 71 | 218 | 3.0 | 5.0 | 0.00 | 0.00 | 0.00 | 15 | 1015.0 |
| 20260508014018 | 72 | 220 | 2.0 | 5.0 | 0.00 | 0.00 | 0.00 | 16 | 1014.9 |
| 20260508013018 | 72 | 197 | 3.0 | 6.0 | 0.00 | 0.00 | 0.00 | 16 | 1014.8 |
| 20260508012018 | 73 | 180 | 2.0 | 5.0 | 0.00 | 0.00 | 0.00 | 15 | 1014.7 |
| 20260508011018 | 73 | 204 | 2.0 | 7.0 | 0.00 | 0.00 | 0.00 | 14 | 1014.6 |
| 20260508010018 | 74 | 199 | 4.0 | 8.0 | 0.00 | 0.00 | 0.00 | 14 | 1014.5 |
| 20260508005019 | 75 | 204 | 2.0 | 9.0 | 0.00 | 0.00 | 0.00 | 13 | 1014.5 |
| 20260508004019 | 75 | 217 | 2.0 | 6.0 | 0.00 | 0.00 | 0.00 | 13 | 1014.5 |
| 20260508003018 | 76 | 205 | 3.0 | 9.0 | 0.00 | 0.00 | 0.00 | 13 | 1014.5 |
| 20260508002036 | 76 | 269 | 2.0 | 7.0 | 0.00 | 0.00 | 0.00 | 13 | 1014.6 |
| 20260508001019 | 76 | 244 | 3.0 | 9.0 | 0.00 | 0.00 | 0.00 | 13 | 1014.7 |
| 20260508000020 | 76 | 236 | 3.0 | 9.0 | 0.00 | 0.00 | 0.00 | 13 | 1014.7 |
| 20260507235020 | 76 | 225 | 2.0 | 7.0 | 0.00 | 0.00 | 0.00 | 13 | 1014.7 |
| 20260507234017 | 75 | 241 | 3.0 | 9.0 | 0.00 | 0.00 | 0.00 | 13 | 1014.9 |
| 20260507233018 | 74 | 187 | 4.0 | 9.0 | 0.00 | 0.00 | 0.00 | 14 | 1014.9 |
| 20260507232020 | 75 | 228 | 4.0 | 10.0 | 0.00 | 0.00 | 0.00 | 13 | 1015.1 |
| 20260507231021 | 73 | 165 | 3.0 | 7.0 | 0.00 | 0.00 | 0.00 | 14 | 1015.2 |
| 20260507230018 | 74 | 146 | 3.0 | 7.0 | 0.00 | 0.00 | 0.00 | 15 | 1015.3 |
| 20260507225018 | 74 | 209 | 2.0 | 8.0 | 0.00 | 0.00 | 0.00 | 15 | 1015.4 |
| 20260507224019 | 74 | 174 | 3.0 | 9.0 | 0.00 | 0.00 | 0.00 | 15 | 1015.5 |
| 20260507223018 | 74 | 165 | 2.0 | 7.0 | 0.00 | 0.00 | 0.00 | 15 | 1015.6 |
| 20260507222019 | 74 | 203 | 4.0 | 10.0 | 0.00 | 0.00 | 0.00 | 16 | 1015.9 |
| 20260507221018 | 75 | 186 | 2.0 | 5.0 | 0.00 | 0.00 | 0.00 | 15 | 1016.0 |
| 20260507220018 | 73 | 194 | 3.0 | 7.0 | 0.00 | 0.00 | 0.00 | 17 | 1016.3 |
| 20260507215019 | 75 | 129 | 2.0 | 5.0 | 0.00 | 0.00 | 0.00 | 16 | 1016.5 |
| 20260507214019 | 73 | 153 | 2.0 | 8.0 | 0.00 | 0.00 | 0.00 | 17 | 1016.7 |
| 20260507213019 | 72 | 206 | 4.0 | 9.0 | 0.00 | 0.00 | 0.00 | 17 | 1017.0 |
| 20260507212019 | 71 | 112 | 2.0 | 5.0 | 0.00 | 0.00 | 0.00 | 19 | 1017.2 |
| 20260507211020 | 73 | 169 | 3.0 | 11.0 | 0.00 | 0.00 | 0.00 | 19 | 1017.3 |
| 20260507210020 | 73 | 274 | 3.0 | 9.0 | 0.00 | 0.00 | 0.00 | 18 | 1017.5 |
| 20260507205121 | 71 | 235 | 3.0 | 9.0 | 0.00 | 0.00 | 0.00 | 19 | 1017.8 |
| 20260507204038 | 72 | 209 | 4.0 | 13.0 | 0.00 | 0.00 | 0.00 | 20 | 1018.0 |
| 20260507203017 | 72 | 173 | 2.0 | 8.0 | 0.00 | 0.00 | 0.00 | 19 | 1018.1 |
| 20260507202021 | 72 | 275 | 3.0 | 8.0 | 0.00 | 0.00 | 0.00 | 19 | 1018.3 |
| 20260507201043 | 70 | 176 | 2.0 | 7.0 | 0.00 | 0.00 | 0.00 | 20 | 1018.5 |
| 20260507200019 | 69 | 350 | 2.0 | 6.0 | 0.00 | 0.00 | 0.00 | 21 | 1018.6 |
| 20260507195017 | 69 | 349 | 2.0 | 8.0 | 0.00 | 0.00 | 0.00 | 21 | 1018.7 |
| 20260507194018 | 70 | 305 | 3.0 | 10.0 | 0.00 | 0.00 | 0.00 | 19 | 1018.9 |
| 20260507193019 | 69 | 301 | 3.0 | 9.0 | 0.00 | 0.00 | 0.00 | 20 | 1019.1 |
| 20260507192018 | 68 | 247 | 4.0 | 11.0 | 0.00 | 0.00 | 0.00 | 21 | 1019.3 |
| 20260507191018 | 67 | 189 | 2.0 | 6.0 | 0.00 | 0.00 | 0.00 | 21 | 1019.5 |
| 20260507190019 | 66 | 301 | 2.0 | 6.0 | 0.00 | 0.00 | 0.00 | 22 | 1019.6 |
| 20260507185018 | 67 | 289 | 4.0 | 8.0 | 0.00 | 0.00 | 0.00 | 23 | 1019.9 |
| 20260507184019 | 67 | 219 | 2.0 | 8.0 | 0.00 | 0.00 | 0.00 | 23 | 1020.2 |
| 20260507183019 | 64 | 284 | 3.0 | 9.0 | 0.00 | 0.00 | 0.00 | 25 | 1020.3 |
| 20260507182019 | 63 | 5 | 5.0 | 9.0 | 0.00 | 0.00 | 0.00 | 27 | 1020.5 |
| 20260507181020 | 64 | 326 | 2.0 | 7.0 | 0.00 | 0.00 | 0.00 | 26 | 1020.7 |
| 20260507180019 | 62 | 324 | 3.0 | 7.0 | 0.00 | 0.00 | 0.00 | 27 | 1020.8 |
| 20260507175020 | 61 | 4 | 4.0 | 9.0 | 0.00 | 0.00 | 0.00 | 27 | 1020.9 |
| 20260507174018 | 60 | 308 | 4.0 | 11.0 | 0.00 | 0.00 | 0.00 | 28 | 1021.0 |
| 20260507173018 | 60 | 340 | 4.0 | 6.0 | 0.00 | 0.00 | 0.00 | 27 | 1021.1 |
| 20260507172041 | 60 | 333 | 3.0 | 9.0 | 0.00 | 0.00 | 0.00 | 29 | 1021.2 |
| 20260507171020 | 58 | 338 | 3.0 | 7.0 | 0.00 | 0.00 | 0.00 | 34 | 1021.5 |
| 20260507170018 | 58 | 1 | 5.0 | 11.0 | 0.00 | 0.00 | 0.00 | 36 | 1021.6 |
| 20260507165021 | 58 | 303 | 4.0 | 8.0 | 0.00 | 0.00 | 0.00 | 38 | 1021.6 |
| 20260507164021 | 57 | 31 | 3.0 | 8.0 | 0.00 | 0.00 | 0.00 | 39 | 1021.7 |
| 20260507163018 | 57 | 1 | 5.0 | 10.0 | 0.00 | 0.00 | 0.00 | 41 | 1021.7 |
| 20260507162038 | 56 | 357 | 5.0 | 11.0 | 0.00 | 0.00 | 0.00 | 42 | 1021.8 |
| 20260507161019 | 55 | 15 | 4.0 | 9.0 | 0.00 | 0.00 | 0.00 | 42 | 1021.9 |
| 20260507160021 | 54 | 346 | 4.0 | 9.0 | 0.00 | 0.00 | 0.00 | 40 | 1021.9 |
| 20260507155019 | 54 | 20 | 3.0 | 9.0 | 0.00 | 0.00 | 0.00 | 45 | 1022.0 |
| 20260507154019 | 53 | 14 | 3.0 | 7.0 | 0.00 | 0.00 | 0.00 | 48 | 1022.0 |
| 20260507153019 | 52 | 12 | 3.0 | 8.0 | 0.00 | 0.00 | 0.00 | 50 | 1022.1 |
| 20260507152020 | 50 | 40 | 2.0 | 5.0 | 0.00 | 0.00 | 0.00 | 53 | 1022.0 |
| 20260507151041 | 49 | 33 | 3.0 | 8.0 | 0.00 | 0.00 | 0.00 | 55 | 1022.0 |
| 20260507150020 | 48 | 9 | 4.0 | 8.0 | 0.00 | 0.00 | 0.00 | 60 | 1022.0 |
| 20260507145021 | 46 | 9 | 7.0 | 13.0 | 0.00 | 0.00 | 0.00 | 62 | 1022.0 |
| 20260507144040 | 46 | 11 | 7.0 | 13.0 | 0.00 | 0.00 | 0.00 | 64 | 1022.0 |
| 20260507143021 | 45 | 4 | 7.0 | 12.0 | 0.00 | 0.00 | 0.00 | 65 | 1022.0 |
| 20260507142021 | 45 | 15 | 5.0 | 9.0 | 0.00 | 0.00 | 0.00 | 66 | 1022.1 |
| 20260507141018 | 44 | 7 | 5.0 | 12.0 | 0.00 | 0.00 | 0.00 | 69 | 1022.1 |
| 20260507140042 | 43 | 359 | 5.0 | 9.0 | 0.00 | 0.00 | 0.00 | 70 | 1022.1 |
| 20260507135021 | 42 | 12 | 6.0 | 12.0 | 0.00 | 0.00 | 0.00 | 71 | 1022.1 |
| 20260507134042 | 41 | 5 | 6.0 | 13.0 | 0.00 | 0.00 | 0.00 | 72 | 1022.0 |
| 20260507133019 | 41 | 12 | 5.0 | 9.0 | 0.00 | 0.00 | 0.00 | 74 | 1021.9 |
| 20260507132018 | 40 | 10 | 6.0 | 10.0 | 0.00 | 0.00 | 0.00 | 76 | 1021.9 |
| 20260507131040 | 39 | 9 | 5.0 | 8.0 | 0.00 | 0.00 | 0.00 | 77 | 1021.9 |
| 20260507130022 | 38 | 11 | 6.0 | 10.0 | 0.00 | 0.00 | 0.00 | 79 | 1021.9 |
| 20260507125019 | 38 | 16 | 5.0 | 9.0 | 0.00 | 0.00 | 0.00 | 79 | 1021.8 |
| 20260507124019 | 38 | 21 | 5.0 | 9.0 | 0.00 | 0.00 | 0.00 | 79 | 1021.8 |
| 20260507123039 | 38 | 25 | 4.0 | 9.0 | 0.00 | 0.00 | 0.00 | 77 | 1021.6 |
| 20260507122019 | 38 | 34 | 4.0 | 8.0 | 0.00 | 0.00 | 0.00 | 77 | 1021.5 |
| 20260507121040 | 38 | 23 | 4.0 | 8.0 | 0.00 | 0.00 | 0.00 | 77 | 1021.5 |
| 20260507120019 | 38 | 8 | 6.0 | 10.0 | 0.00 | 0.00 | 0.00 | 76 | 1021.4 |
| 20260507115020 | 39 | 15 | 6.0 | 10.0 | 0.00 | 0.00 | 0.00 | 74 | 1021.5 |
| 20260507114040 | 39 | 16 | 6.0 | 9.0 | 0.00 | 0.00 | 0.00 | 74 | 1021.5 |
| 20260507113020 | 39 | 16 | 7.0 | 11.0 | 0.00 | 0.00 | 0.00 | 71 | 1021.4 |
| 20260507112040 | 39 | 16 | 5.0 | 10.0 | 0.00 | 0.00 | 0.00 | 65 | 1021.4 |
| 20260507111017 | 39 | 13 | 4.0 | 6.0 | 0.00 | 0.00 | 0.00 | 65 | 1021.3 |
| 20260507110021 | 39 | 15 | 2.0 | 4.0 | 0.00 | 0.00 | 0.00 | 66 | 1021.3 |
| 20260507105022 | 40 | 17 | 4.0 | 7.0 | 0.00 | 0.00 | 0.00 | 67 | 1021.3 |
| 20260507104021 | 40 | 13 | 4.0 | 9.0 | 0.00 | 0.00 | 0.00 | 68 | 1021.4 |
| 20260507103018 | 40 | 28 | 3.0 | 8.0 | 0.00 | 0.00 | 0.00 | 70 | 1021.5 |
| 20260507102018 | 40 | 8 | 6.0 | 8.0 | 0.00 | 0.00 | 0.00 | 69 | 1021.3 |
| 20260507101018 | 40 | 19 | 3.0 | 5.0 | 0.00 | 0.00 | 0.00 | 69 | 1021.3 |
| 20260507100022 | 41 | 11 | 4.0 | 6.0 | 0.00 | 0.00 | 0.00 | 68 | 1021.2 |
| 20260507095019 | 41 | 5 | 4.0 | 6.0 | 0.00 | 0.00 | 0.00 | 67 | 1021.2 |
| 20260507094019 | 42 | 360 | 4.0 | 7.0 | 0.00 | 0.00 | 0.00 | 64 | 1021.1 |
| 20260507093019 | 42 | 353 | 5.0 | 9.0 | 0.00 | 0.00 | 0.00 | 61 | 1021.0 |
| 20260507092101 | 43 | 359 | 3.0 | 6.0 | 0.00 | 0.00 | 0.00 | 59 | 1021.0 |
| 20260507091019 | 44 | 20 | 3.0 | 6.0 | 0.00 | 0.00 | 0.00 | 57 | 1021.0 |
| 20260507090019 | 45 | 19 | 5.0 | 9.0 | 0.00 | 0.00 | 0.00 | 49 | 1021.1 |
| 20260507085020 | 46 | 11 | 3.0 | 6.0 | 0.00 | 0.00 | 0.00 | 40 | 1021.0 |
| 20260507084021 | 47 | 14 | 2.0 | 4.0 | 0.00 | 0.00 | 0.00 | 38 | 1021.0 |
| 20260507083102 | 48 | 356 | 3.0 | 5.0 | 0.00 | 0.00 | 0.00 | 35 | 1021.0 |
| 20260507082040 | 49 | 12 | 4.0 | 6.0 | 0.00 | 0.00 | 0.00 | 33 | 1021.1 |
| 20260507081018 | 48 | 19 | 5.0 | 9.0 | 0.00 | 0.00 | 0.00 | 32 | 1021.1 |
| 20260507080021 | 47 | 48 | 2.0 | 8.0 | 0.00 | 0.00 | 0.00 | 34 | 1021.0 |
| 20260507075020 | 48 | 55 | 1.0 | 3.0 | 0.00 | 0.00 | 0.00 | 35 | 1020.9 |
| 20260507074021 | 48 | 55 | 1.0 | 2.0 | 0.00 | 0.00 | 0.00 | 34 | 1020.8 |
| 20260507073019 | 49 | 24 | 4.0 | 7.0 | 0.00 | 0.00 | 0.00 | 32 | 1020.9 |
| 20260507072018 | 49 | 28 | 4.0 | 7.0 | 0.00 | 0.00 | 0.00 | 33 | 1020.7 |
| 20260507071020 | 49 | 46 | 1.0 | 4.0 | 0.00 | 0.00 | 0.00 | 34 | 1020.7 |
| 20260507070021 | 50 | 26 | 4.0 | 7.0 | 0.00 | 0.00 | 0.00 | 33 | 1020.6 |
| 20260507065019 | 50 | 43 | 1.0 | 3.0 | 0.00 | 0.00 | 0.00 | 34 | 1020.6 |
| 20260507064019 | 51 | 21 | 3.0 | 5.0 | 0.00 | 0.00 | 0.00 | 32 | 1020.6 |
| 20260507063039 | 50 | 25 | 3.0 | 7.0 | 0.00 | 0.00 | 0.00 | 33 | 1020.6 |
| 20260507062019 | 50 | 61 | 1.0 | 3.0 | 0.00 | 0.00 | 0.00 | 34 | 1020.5 |
| 20260507061038 | 51 | 33 | 2.0 | 4.0 | 0.00 | 0.00 | 0.00 | 34 | 1020.5 |
| 20260507060019 | 52 | 27 | 4.0 | 7.0 | 0.00 | 0.00 | 0.00 | 34 | 1020.3 |
| 20260507055020 | 52 | 25 | 3.0 | 6.0 | 0.00 | 0.00 | 0.00 | 34 | 1020.4 |